createdAt,value
2023-04-26T05:03:35.689Z,569.00
2023-04-26T05:04:35.590Z,568.00
2023-04-26T05:05:36.460Z,567.00
2023-04-26T05:06:36.457Z,570.00
2023-04-26T05:07:36.493Z,570.00
2023-04-26T05:08:35.527Z,570.00
2023-04-26T05:09:36.578Z,572.00
2023-04-26T05:10:35.652Z,573.00
2023-04-26T05:11:36.737Z,571.00
2023-04-26T05:12:36.822Z,570.00
2023-04-26T05:13:35.828Z,571.00
2023-04-26T05:14:36.883Z,573.00
2023-04-26T05:15:35.932Z,594.00
2023-04-26T05:16:37.019Z,580.00
2023-04-26T05:17:36.076Z,580.00
2023-04-26T05:18:36.098Z,582.00
2023-04-26T05:19:37.174Z,585.00
2023-04-26T05:20:36.210Z,584.00
2023-04-26T05:21:37.273Z,583.00
2023-04-26T05:22:37.312Z,583.00
2023-04-26T05:23:36.346Z,585.00
2023-04-26T05:24:36.451Z,585.00
2023-04-26T05:25:37.423Z,585.00
2023-04-26T05:26:37.513Z,582.00
2023-04-26T05:27:36.500Z,582.00
2023-04-26T05:28:36.536Z,584.00
2023-04-26T05:29:36.605Z,591.00
2023-04-26T05:30:36.631Z,592.00
2023-04-26T05:31:36.689Z,592.00
2023-04-26T05:32:36.744Z,599.00
2023-04-26T05:33:36.748Z,605.00
2023-04-26T05:34:37.775Z,607.00
2023-04-26T05:35:38.047Z,612.00
2023-04-26T05:36:37.930Z,657.00
2023-04-26T05:37:37.949Z,666.00
2023-04-26T05:38:36.965Z,680.00
2023-04-26T05:39:37.021Z,683.00
2023-04-26T05:40:37.113Z,687.00
2023-04-26T05:41:37.134Z,694.00
2023-04-26T05:42:38.246Z,704.00
2023-04-26T05:43:37.249Z,715.00
2023-04-26T05:44:37.284Z,723.00
2023-04-26T05:45:38.443Z,733.00
2023-04-26T05:46:37.391Z,743.00
2023-04-26T05:47:38.566Z,823.00
2023-04-26T05:48:38.473Z,838.00
2023-04-26T05:49:37.555Z,837.00
2023-04-26T05:50:40.048Z,840.00
2023-04-26T05:51:38.682Z,861.00
2023-04-26T05:52:38.768Z,857.00
2023-04-26T05:53:38.764Z,853.00
2023-04-26T05:54:37.764Z,727.00
2023-04-26T05:55:38.792Z,872.00
2023-04-26T05:56:37.795Z,877.00
2023-04-26T05:57:37.881Z,869.00
2023-04-26T05:58:38.862Z,862.00
2023-04-26T05:59:37.900Z,862.00
2023-04-26T06:00:38.903Z,864.00
2023-04-26T06:01:37.966Z,849.00
2023-04-26T06:02:38.118Z,845.00
2023-04-26T06:03:38.374Z,849.00
2023-04-26T06:04:39.302Z,845.00
2023-04-26T06:05:39.088Z,838.00
2023-04-26T06:06:39.013Z,836.00
2023-04-26T06:07:39.021Z,835.00
2023-04-26T06:08:39.020Z,832.00
2023-04-26T06:09:38.987Z,832.00
2023-04-26T06:10:39.012Z,830.00
2023-04-26T06:11:39.013Z,825.00
2023-04-26T06:12:39.050Z,821.00
2023-04-26T06:13:39.206Z,817.00
2023-04-26T06:14:39.161Z,813.00
2023-04-26T06:15:39.246Z,810.00
2023-04-26T06:16:40.292Z,801.00
2023-04-26T06:17:39.327Z,787.00
2023-04-26T06:18:38.300Z,781.00
2023-04-26T06:19:39.274Z,778.00
2023-04-26T06:20:38.253Z,772.00
2023-04-26T06:21:38.250Z,768.00
2023-04-26T06:22:39.243Z,765.00
2023-04-26T06:23:39.381Z,760.00
2023-04-26T06:24:39.228Z,756.00
2023-04-26T06:25:39.229Z,751.00
2023-04-26T06:26:39.225Z,746.00
2023-04-26T06:27:39.233Z,743.00
2023-04-26T06:28:40.500Z,742.00
2023-04-26T06:29:38.191Z,735.00
2023-04-26T06:30:39.229Z,729.00
2023-04-26T06:31:38.290Z,726.00
2023-04-26T06:32:39.223Z,720.00
2023-04-26T06:33:39.172Z,714.00
2023-04-26T06:34:39.185Z,710.00
2023-04-26T06:35:38.153Z,708.00
2023-04-26T06:36:39.158Z,702.00
2023-04-26T06:37:39.133Z,703.00
2023-04-26T06:38:38.129Z,700.00
2023-04-26T06:39:39.142Z,697.00
2023-04-26T06:40:38.112Z,695.00
2023-04-26T06:41:38.106Z,690.00
2023-04-26T06:42:38.110Z,684.00
2023-04-26T06:43:38.114Z,684.00
2023-04-26T06:44:39.081Z,681.00
2023-04-26T06:45:40.516Z,679.00
2023-04-26T06:46:39.202Z,676.00
2023-04-26T06:47:39.193Z,672.00
2023-04-26T06:48:38.071Z,668.00
2023-04-26T06:49:39.065Z,664.00
2023-04-26T06:50:39.065Z,659.00
2023-04-26T06:51:39.057Z,655.00
2023-04-26T06:52:39.022Z,653.00
2023-04-26T06:53:39.204Z,651.00
2023-04-26T06:54:42.906Z,646.00
2023-04-26T06:55:39.051Z,642.00
2023-04-26T06:56:39.024Z,641.00
2023-04-26T06:57:38.010Z,642.00
2023-04-26T06:58:39.238Z,641.00
2023-04-26T06:59:38.974Z,636.00
2023-04-26T07:00:38.963Z,633.00
2023-04-26T07:01:38.986Z,629.00
2023-04-26T07:02:39.050Z,627.00
2023-04-26T07:03:39.104Z,624.00
2023-04-26T07:04:39.245Z,619.00
2023-04-26T07:05:37.951Z,618.00
2023-04-26T07:06:37.963Z,618.00
2023-04-26T07:07:37.926Z,617.00
2023-04-26T07:08:38.911Z,618.00
2023-04-26T07:09:38.891Z,616.00
2023-04-26T07:10:38.927Z,614.00
2023-04-26T07:11:38.924Z,610.00
2023-04-26T07:12:37.937Z,608.00
2023-04-26T07:13:40.875Z,608.00
2023-04-26T07:14:39.527Z,608.00
2023-04-26T07:15:37.866Z,604.00
2023-04-26T07:16:39.095Z,604.00
2023-04-26T07:17:37.858Z,603.00
2023-04-26T07:18:38.865Z,602.00
2023-04-26T07:19:38.829Z,603.00
2023-04-26T07:20:38.819Z,602.00
2023-04-26T07:21:38.800Z,598.00
2023-04-26T07:22:38.802Z,598.00
2023-04-26T07:23:38.797Z,595.00
2023-04-26T07:24:38.790Z,591.00
2023-04-26T07:25:38.782Z,590.00
2023-04-26T07:26:38.775Z,587.00
2023-04-26T07:27:37.812Z,586.00
2023-04-26T07:28:38.764Z,586.00
2023-04-26T07:29:38.751Z,587.00
2023-04-26T07:30:38.741Z,585.00
2023-04-26T07:31:37.738Z,585.00
2023-04-26T07:32:38.816Z,585.00
2023-04-26T07:33:37.941Z,584.00
2023-04-26T07:34:37.743Z,580.00
2023-04-26T07:35:37.723Z,577.00
2023-04-26T07:36:38.716Z,575.00
2023-04-26T07:37:37.695Z,572.00
2023-04-26T07:38:38.706Z,572.00
2023-04-26T07:39:38.727Z,572.00
2023-04-26T07:40:38.764Z,572.00
2023-04-26T07:41:38.778Z,570.00
2023-04-26T07:42:37.804Z,565.00
2023-04-26T07:43:37.954Z,562.00
2023-04-26T07:44:38.874Z,561.00
2023-04-26T07:45:39.024Z,560.00
2023-04-26T07:46:38.943Z,557.00
2023-04-26T07:47:38.984Z,554.00
2023-04-26T07:48:39.248Z,553.00
2023-04-26T07:49:39.039Z,553.00
2023-04-26T07:50:38.099Z,587.00
2023-04-26T07:51:38.099Z,665.00
2023-04-26T07:52:38.135Z,697.00
2023-04-26T07:53:39.242Z,745.00
2023-04-26T07:54:39.210Z,715.00
2023-04-26T07:55:38.200Z,696.00
2023-04-26T07:56:39.255Z,679.00
2023-04-26T07:57:38.308Z,687.00
2023-04-26T07:58:38.386Z,701.00
2023-04-26T07:59:38.420Z,723.00
2023-04-26T08:00:39.469Z,768.00
2023-04-26T08:01:39.516Z,819.00
2023-04-26T08:02:44.913Z,801.00
2023-04-26T08:03:39.756Z,809.00
2023-04-26T08:04:39.559Z,826.00
2023-04-26T08:05:38.681Z,850.00
2023-04-26T08:06:39.464Z,877.00
2023-04-26T08:07:38.462Z,913.00
2023-04-26T08:08:38.426Z,950.00
2023-04-26T08:09:39.441Z,967.00
2023-04-26T08:10:39.423Z,985.00
2023-04-26T08:11:38.429Z,1003.00
2023-04-26T08:12:39.433Z,1057.00
2023-04-26T08:13:39.428Z,1076.00
2023-04-26T08:14:39.394Z,1099.00
2023-04-26T08:15:39.552Z,1141.00
2023-04-26T08:16:39.408Z,1197.00
2023-04-26T08:17:38.517Z,1221.00
2023-04-26T08:18:39.379Z,1247.00
2023-04-26T08:19:38.397Z,1258.00
2023-04-26T08:20:38.365Z,1287.00
2023-04-26T08:21:39.356Z,1308.00
2023-04-26T08:22:39.357Z,1326.00
2023-04-26T08:23:38.350Z,1341.00
2023-04-26T08:24:39.336Z,1401.00
2023-04-26T08:25:38.405Z,1482.00
2023-04-26T08:26:38.463Z,1443.00
2023-04-26T08:27:39.519Z,1451.00
2023-04-26T08:28:39.547Z,1457.00
2023-04-26T08:29:39.581Z,1462.00
2023-04-26T08:30:39.776Z,1470.00
2023-04-26T08:31:40.061Z,1480.00
2023-04-26T08:32:39.748Z,1499.00
2023-04-26T08:33:39.785Z,1510.00
2023-04-26T08:34:38.894Z,1516.00
2023-04-26T08:35:39.851Z,1533.00
2023-04-26T08:36:39.901Z,1546.00
2023-04-26T08:37:39.917Z,1563.00
2023-04-26T08:38:39.947Z,1577.00
2023-04-26T08:39:39.002Z,1589.00
2023-04-26T08:40:40.023Z,1602.00
2023-04-26T08:41:39.027Z,1619.00
2023-04-26T08:42:40.081Z,1645.00
2023-04-26T08:43:39.245Z,1688.00
2023-04-26T08:44:40.097Z,1570.00
2023-04-26T08:45:39.149Z,1602.00
2023-04-26T08:46:40.389Z,1575.00
2023-04-26T08:47:40.360Z,1438.00
2023-04-26T08:48:40.216Z,1427.00
2023-04-26T08:49:39.235Z,1418.00
2023-04-26T08:50:40.240Z,1367.00
2023-04-26T08:51:39.280Z,1363.00
2023-04-26T08:52:40.303Z,1352.00
2023-04-26T08:53:39.306Z,1339.00
2023-04-26T08:54:39.369Z,1153.00
2023-04-26T08:55:39.396Z,1172.00
2023-04-26T08:56:39.437Z,1134.00
2023-04-26T08:57:40.481Z,1146.00
2023-04-26T08:58:39.764Z,1154.00
2023-04-26T08:59:40.572Z,1240.00
2023-04-26T09:00:39.681Z,1275.00
2023-04-26T09:01:39.772Z,1288.00
2023-04-26T09:02:39.799Z,1381.00
2023-04-26T09:03:41.026Z,1412.00
2023-04-26T09:04:40.992Z,1448.00
2023-04-26T09:05:40.754Z,1442.00
2023-04-26T09:06:40.760Z,1459.00
2023-04-26T09:07:39.831Z,1466.00
2023-04-26T09:08:40.268Z,1556.00
2023-04-26T09:09:41.018Z,1608.00
2023-04-26T09:10:40.969Z,1605.00
2023-04-26T09:11:41.043Z,1604.00
2023-04-26T09:12:41.082Z,1649.00
2023-04-26T09:13:41.142Z,1682.00
2023-04-26T09:14:41.188Z,1694.00
2023-04-26T09:15:41.248Z,1756.00
2023-04-26T09:16:40.367Z,1756.00
2023-04-26T09:17:41.404Z,1754.00
2023-04-26T09:18:41.359Z,1781.00
2023-04-26T09:19:41.614Z,1816.00
2023-04-26T09:20:40.439Z,1815.00
2023-04-26T09:21:41.460Z,1822.00
2023-04-26T09:22:41.523Z,1855.00
2023-04-26T09:23:40.541Z,1862.00
2023-04-26T09:24:41.547Z,1890.00
2023-04-26T09:25:40.567Z,1956.00
2023-04-26T09:26:41.597Z,1967.00
2023-04-26T09:27:41.599Z,1988.00
2023-04-26T09:28:41.665Z,1998.00
2023-04-26T09:29:41.619Z,2026.00
2023-04-26T09:30:41.627Z,2098.00
2023-04-26T09:31:41.647Z,2118.00
2023-04-26T09:32:41.690Z,2127.00
2023-04-26T09:33:41.685Z,2152.00
2023-04-26T09:34:40.634Z,2170.00
2023-04-26T09:35:41.663Z,2236.00
2023-04-26T09:36:40.651Z,2253.00
2023-04-26T09:37:50.838Z,2266.00
2023-04-26T09:38:41.654Z,2280.00
2023-04-26T09:39:41.787Z,2342.00
2023-04-26T09:40:40.691Z,2349.00
2023-04-26T09:41:41.599Z,2379.00
2023-04-26T09:42:41.591Z,2413.00
2023-04-26T09:43:40.617Z,2439.00
2023-04-26T09:44:41.604Z,2473.00
2023-04-26T09:45:41.603Z,2512.00
2023-04-26T09:46:41.641Z,2633.00
2023-04-26T09:47:41.611Z,2613.00
2023-04-26T09:48:40.584Z,2625.00
2023-04-26T09:49:41.789Z,2636.00
2023-04-26T09:50:41.549Z,2690.00
2023-04-26T09:51:41.831Z,2693.00
2023-04-26T09:52:41.529Z,2672.00
2023-04-26T09:53:41.672Z,2652.00
2023-04-26T09:54:41.539Z,2632.00
2023-04-26T09:55:41.537Z,2611.00
2023-04-26T09:56:41.504Z,2591.00
2023-04-26T09:57:41.490Z,2580.00
2023-04-26T09:58:41.477Z,2564.00
2023-04-26T09:59:41.494Z,2563.00
2023-04-26T10:00:40.482Z,2535.00
2023-04-26T10:01:41.455Z,2485.00
2023-04-26T10:02:41.542Z,2477.00
2023-04-26T10:03:41.697Z,2454.00
2023-04-26T10:04:41.485Z,2415.00
2023-04-26T10:05:40.433Z,2387.00
2023-04-26T10:06:40.426Z,2392.00
2023-04-26T10:07:40.444Z,2385.00
2023-04-26T10:08:41.411Z,2390.00
2023-04-26T10:09:41.398Z,2404.00
2023-04-26T10:10:41.401Z,2405.00
2023-04-26T10:11:41.390Z,2381.00
2023-04-26T10:12:41.377Z,2380.00
2023-04-26T10:13:41.368Z,2380.00
2023-04-26T10:14:41.386Z,2164.00
2023-04-26T10:15:41.408Z,2123.00
2023-04-26T10:16:41.469Z,2135.00
2023-04-26T10:17:40.389Z,2139.00
2023-04-26T10:18:41.348Z,2093.00
2023-04-26T10:19:40.324Z,2017.00
2023-04-26T10:20:41.324Z,1970.00
2023-04-26T10:21:40.327Z,1879.00
2023-04-26T10:22:41.325Z,1832.00
2023-04-26T10:23:41.321Z,1824.00
2023-04-26T10:24:41.292Z,1764.00
2023-04-26T10:25:40.267Z,1745.00
2023-04-26T10:26:41.268Z,1706.00
2023-04-26T10:27:41.277Z,1649.00
2023-04-26T10:28:40.248Z,1648.00
2023-04-26T10:29:41.279Z,1635.00
2023-04-26T10:30:40.261Z,1622.00
2023-04-26T10:31:41.299Z,1614.00
2023-04-26T10:32:40.255Z,1609.00
2023-04-26T10:33:41.247Z,1573.00
2023-04-26T10:34:41.244Z,1548.00
2023-04-26T10:35:40.230Z,1557.00
2023-04-26T10:36:40.233Z,1556.00
2023-04-26T10:37:41.247Z,1554.00
2023-04-26T10:38:41.246Z,1542.00
2023-04-26T10:39:41.291Z,1506.00
2023-04-26T10:40:41.286Z,1487.00
2023-04-26T10:41:41.294Z,1305.00
2023-04-26T10:42:41.696Z,1265.00
2023-04-26T10:43:40.341Z,1143.00
2023-04-26T10:44:41.401Z,1463.00
2023-04-26T10:45:41.499Z,1003.00
2023-04-26T10:46:40.590Z,1086.00
2023-04-26T10:47:41.561Z,1169.00
2023-04-26T10:48:40.555Z,1213.00
2023-04-26T10:49:40.612Z,1274.00
2023-04-26T10:50:41.685Z,1287.00
2023-04-26T10:51:40.731Z,1286.00
2023-04-26T10:52:41.785Z,1301.00
2023-04-26T10:53:40.827Z,1355.00
2023-04-26T10:54:41.871Z,1348.00
2023-04-26T10:55:42.151Z,1354.00
2023-04-26T10:56:40.953Z,1384.00
2023-04-26T10:57:41.991Z,1392.00
2023-04-26T10:58:42.012Z,1403.00
2023-04-26T10:59:53.888Z,1412.00
2023-04-26T11:00:42.034Z,1418.00
2023-04-26T11:01:42.116Z,1421.00
2023-04-26T11:02:41.185Z,1440.00
2023-04-26T11:03:42.306Z,1449.00
2023-04-26T11:04:41.067Z,1454.00
2023-04-26T11:05:41.019Z,1470.00
2023-04-26T11:06:42.000Z,1477.00
2023-04-26T11:07:42.005Z,1430.00
2023-04-26T11:08:41.990Z,1435.00
2023-04-26T11:09:41.966Z,1438.00
2023-04-26T11:10:41.990Z,1444.00
2023-04-26T11:11:41.982Z,1444.00
2023-04-26T11:12:40.958Z,1442.00
2023-04-26T11:13:40.953Z,1439.00
2023-04-26T11:14:41.948Z,1438.00
2023-04-26T11:15:40.985Z,1440.00
2023-04-26T11:16:41.018Z,1438.00
2023-04-26T11:17:41.936Z,1424.00
2023-04-26T11:18:41.994Z,1436.00
2023-04-26T11:19:41.968Z,1450.00
2023-04-26T11:20:40.966Z,1448.00
2023-04-26T11:21:41.949Z,1449.00
2023-04-26T11:22:42.068Z,1435.00
2023-04-26T11:23:41.973Z,1437.00
2023-04-26T11:24:42.003Z,1444.00
2023-04-26T11:25:40.997Z,1445.00
2023-04-26T11:26:41.027Z,1453.00
2023-04-26T11:27:42.083Z,1456.00
2023-04-26T11:28:42.057Z,1450.00
2023-04-26T11:29:42.040Z,1436.00
2023-04-26T11:30:42.073Z,1453.00
2023-04-26T11:31:42.093Z,1452.00
2023-04-26T11:32:42.074Z,1453.00
2023-04-26T11:33:42.049Z,1449.00
2023-04-26T11:34:41.082Z,1437.00
2023-04-26T11:35:42.061Z,1420.00
2023-04-26T11:36:42.083Z,1472.00
2023-04-26T11:37:41.052Z,1504.00
2023-04-26T11:38:41.062Z,1526.00
2023-04-26T11:39:42.058Z,1541.00
2023-04-26T11:40:42.084Z,1564.00
2023-04-26T11:41:42.078Z,1583.00
2023-04-26T11:42:42.097Z,1589.00
2023-04-26T11:43:41.255Z,1597.00
2023-04-26T11:44:42.166Z,1619.00
2023-04-26T11:45:41.182Z,1640.00
2023-04-26T11:46:42.251Z,1662.00
2023-04-26T11:47:41.286Z,1731.00
2023-04-26T11:48:42.304Z,1730.00
2023-04-26T11:49:41.347Z,1743.00
2023-04-26T11:50:42.414Z,1738.00
2023-04-26T11:51:42.471Z,1737.00
2023-04-26T11:52:42.508Z,1734.00
2023-04-26T11:53:42.591Z,1734.00
2023-04-26T11:54:42.613Z,1730.00
2023-04-26T11:55:41.682Z,1727.00
2023-04-26T11:56:41.721Z,1735.00
2023-04-26T11:57:42.820Z,1730.00
2023-04-26T11:58:42.854Z,1722.00
2023-04-26T11:59:41.931Z,1711.00
2023-04-26T12:00:41.975Z,1669.00
2023-04-26T12:01:43.104Z,1671.00
2023-04-26T12:02:43.220Z,1671.00
2023-04-26T12:03:43.293Z,1653.00
2023-04-26T12:04:42.595Z,1594.00
2023-04-26T12:05:43.261Z,1577.00
2023-04-26T12:06:43.341Z,1578.00
2023-04-26T12:07:43.426Z,1626.00
2023-04-26T12:08:42.463Z,1646.00
2023-04-26T12:09:43.490Z,1661.00
2023-04-26T12:10:43.495Z,1620.00
2023-04-26T12:11:43.505Z,1619.00
2023-04-26T12:12:42.530Z,1629.00
2023-04-26T12:13:42.543Z,1592.00
2023-04-26T12:14:43.530Z,1601.00
2023-04-26T12:15:42.593Z,1602.00
2023-04-26T12:16:42.567Z,1613.00
2023-04-26T12:17:42.592Z,1626.00
2023-04-26T12:18:43.560Z,1639.00
2023-04-26T12:19:43.578Z,1640.00
2023-04-26T12:20:43.548Z,1544.00
2023-04-26T12:21:43.563Z,1529.00
2023-04-26T12:22:42.552Z,1604.00
2023-04-26T12:23:42.542Z,1475.00
2023-04-26T12:24:43.540Z,1479.00
2023-04-26T12:25:42.549Z,1494.00
2023-04-26T12:26:42.562Z,1470.00
2023-04-26T12:27:43.562Z,1468.00
2023-04-26T12:28:43.568Z,1450.00
2023-04-26T12:29:43.843Z,1546.00
2023-04-26T12:30:42.568Z,1535.00
2023-04-26T12:31:43.658Z,1528.00
2023-04-26T12:32:42.637Z,1463.00
2023-04-26T12:33:43.683Z,1347.00
2023-04-26T12:34:43.687Z,1230.00
2023-04-26T12:35:43.835Z,1188.00
2023-04-26T12:36:43.785Z,1100.00
2023-04-26T12:37:42.803Z,1150.00
2023-04-26T12:38:43.806Z,1127.00
2023-04-26T12:39:43.843Z,1068.00
2023-04-26T12:40:46.843Z,1060.00
2023-04-26T12:41:42.840Z,916.00
2023-04-26T12:42:43.817Z,910.00
2023-04-26T12:43:43.813Z,917.00
2023-04-26T12:44:43.836Z,942.00
2023-04-26T12:45:43.849Z,953.00
2023-04-26T12:46:43.956Z,964.00
2023-04-26T12:47:42.830Z,980.00
2023-04-26T12:48:42.769Z,1050.00
2023-04-26T12:49:43.782Z,1066.00
2023-04-26T12:50:42.764Z,1076.00
2023-04-26T12:51:43.756Z,1084.00
2023-04-26T12:52:42.730Z,1075.00
2023-04-26T12:53:42.742Z,1070.00
2023-04-26T12:54:43.761Z,1070.00
2023-04-26T12:55:43.730Z,1075.00
2023-04-26T12:56:43.945Z,1080.00
2023-04-26T12:57:43.709Z,1080.00
2023-04-26T12:58:43.715Z,1085.00
2023-04-26T12:59:43.730Z,1085.00
2023-04-26T13:00:44.692Z,1084.00
2023-04-26T13:01:43.771Z,1076.00
2023-04-26T13:02:43.847Z,1072.00
2023-04-26T13:03:43.832Z,1068.00
2023-04-26T13:04:42.882Z,1064.00
2023-04-26T13:05:42.663Z,1061.00
2023-04-26T13:06:43.676Z,1061.00
2023-04-26T13:07:43.640Z,1058.00
2023-04-26T13:08:42.641Z,1059.00
2023-04-26T13:09:43.651Z,1064.00
2023-04-26T13:10:43.635Z,1065.00
2023-04-26T13:11:43.619Z,1065.00
2023-04-26T13:12:42.614Z,1062.00
2023-04-26T13:13:44.101Z,1061.00
2023-04-26T13:14:42.609Z,1059.00
2023-04-26T13:15:42.708Z,1058.00
2023-04-26T13:16:43.669Z,1061.00
2023-04-26T13:17:42.722Z,1064.00
2023-04-26T13:18:42.730Z,1066.00
2023-04-26T13:19:43.830Z,1066.00
2023-04-26T13:20:42.780Z,1064.00
2023-04-26T13:21:43.818Z,1064.00
2023-04-26T13:22:42.832Z,1066.00
2023-04-26T13:23:43.848Z,1067.00
2023-04-26T13:24:42.893Z,1064.00
2023-04-26T13:25:43.980Z,1064.00
2023-04-26T13:26:43.932Z,1066.00
2023-04-26T13:27:43.979Z,1067.00
2023-04-26T13:28:42.992Z,1064.00
2023-04-26T13:29:44.011Z,1064.00
2023-04-26T13:30:44.058Z,1066.00
2023-04-26T13:31:44.108Z,1064.00
2023-04-26T13:32:43.187Z,1061.00
2023-04-26T13:33:44.147Z,1062.00
2023-04-26T13:34:44.168Z,1064.00
2023-04-26T13:35:44.213Z,1065.00
2023-04-26T13:36:44.204Z,1063.00
2023-04-26T13:37:44.234Z,1066.00
2023-04-26T13:38:43.280Z,1062.00
2023-04-26T13:39:44.290Z,1062.00
2023-04-26T13:40:44.354Z,1063.00
2023-04-26T13:41:44.351Z,1061.00
2023-04-26T13:42:44.512Z,1064.00
2023-04-26T13:43:44.413Z,1062.00
2023-04-26T13:44:44.518Z,1062.00
2023-04-26T13:45:43.481Z,1063.00
2023-04-26T13:46:44.604Z,1063.00
2023-04-26T13:47:43.550Z,1062.00
2023-04-26T13:48:43.555Z,1062.00
2023-04-26T13:49:44.572Z,1059.00
2023-04-26T13:50:44.622Z,1058.00
2023-04-26T13:51:44.658Z,1059.00
2023-04-26T13:52:44.658Z,1057.00
2023-04-26T13:53:43.668Z,1057.00
2023-04-26T13:54:44.700Z,1057.00
2023-04-26T13:55:44.736Z,1055.00
2023-04-26T13:56:43.752Z,1051.00
2023-04-26T13:57:44.779Z,1050.00
2023-04-26T13:58:44.800Z,1047.00
2023-04-26T13:59:44.824Z,1047.00
2023-04-26T14:00:43.866Z,1050.00
2023-04-26T14:01:43.927Z,1049.00
2023-04-26T14:02:45.135Z,1046.00
2023-04-26T14:03:44.003Z,1043.00
2023-04-26T14:04:45.240Z,1041.00
2023-04-26T14:05:45.017Z,1041.00
2023-04-26T14:06:45.049Z,1040.00
2023-04-26T14:07:45.108Z,1040.00
2023-04-26T14:08:44.110Z,1037.00
2023-04-26T14:09:44.144Z,1036.00
2023-04-26T14:10:44.180Z,1039.00
2023-04-26T14:11:47.556Z,1038.00
2023-04-26T14:12:45.226Z,1038.00
2023-04-26T14:13:45.243Z,1038.00
2023-04-26T14:14:45.174Z,1038.00
2023-04-26T14:15:44.225Z,1040.00
2023-04-26T14:16:45.291Z,1042.00
2023-04-26T14:17:45.196Z,1043.00
2023-04-26T14:18:44.176Z,1045.00
2023-04-26T14:19:44.150Z,1044.00
2023-04-26T14:20:45.154Z,1046.00
2023-04-26T14:21:44.152Z,1045.00
2023-04-26T14:22:45.136Z,1043.00
2023-04-26T14:23:44.152Z,1044.00
2023-04-26T14:24:44.129Z,1042.00
2023-04-26T14:25:44.387Z,1041.00
2023-04-26T14:26:44.093Z,1042.00
2023-04-26T14:27:44.122Z,1040.00
2023-04-26T14:28:44.085Z,1037.00
2023-04-26T14:29:45.097Z,1038.00
2023-04-26T14:30:45.094Z,1039.00
2023-04-26T14:31:45.158Z,1039.00
2023-04-26T14:32:45.081Z,1038.00
2023-04-26T14:33:45.064Z,1033.00
2023-04-26T14:34:45.090Z,1033.00
2023-04-26T14:35:45.375Z,1036.00
2023-04-26T14:36:45.046Z,1037.00
2023-04-26T14:37:45.048Z,1039.00
2023-04-26T14:38:45.035Z,1036.00
2023-04-26T14:39:44.036Z,1036.00
2023-04-26T14:40:45.412Z,1036.00
2023-04-26T14:41:44.001Z,1035.00
2023-04-26T14:42:44.001Z,1038.00
2023-04-26T14:43:44.996Z,1035.00
2023-04-26T14:44:43.992Z,1035.00
2023-04-26T14:45:45.148Z,1032.00
2023-04-26T14:46:44.110Z,1028.00
2023-04-26T14:47:44.053Z,1028.00
2023-04-26T14:48:44.088Z,1027.00
2023-04-26T14:49:45.117Z,1025.00
2023-04-26T14:50:44.142Z,1023.00
2023-04-26T14:51:45.200Z,1022.00
2023-04-26T14:52:45.248Z,1024.00
2023-04-26T14:53:45.274Z,1023.00
2023-04-26T14:54:45.341Z,1023.00
2023-04-26T14:55:44.439Z,1023.00
2023-04-26T14:56:44.412Z,1026.00
2023-04-26T14:57:45.500Z,1027.00
2023-04-26T14:58:45.519Z,1026.00
2023-04-26T14:59:44.563Z,1026.00
2023-04-26T15:00:45.597Z,1024.00
2023-04-26T15:01:45.699Z,1021.00
2023-04-26T15:02:44.910Z,1022.00
2023-04-26T15:03:45.891Z,1024.00
2023-04-26T15:04:45.075Z,1024.00
2023-04-26T15:05:45.853Z,1023.00
2023-04-26T15:06:45.883Z,1022.00
2023-04-26T15:07:45.921Z,1020.00
2023-04-26T15:08:45.045Z,1025.00
2023-04-26T15:09:46.020Z,1025.00
2023-04-26T15:10:46.069Z,1025.00
2023-04-26T15:11:45.115Z,1022.00
2023-04-26T15:12:45.161Z,1021.00
2023-04-26T15:13:46.191Z,1021.00
2023-04-26T15:14:46.226Z,1021.00
2023-04-26T15:15:45.302Z,1021.00
2023-04-26T15:16:45.400Z,1023.00
2023-04-26T15:17:45.386Z,1025.00
2023-04-26T15:18:46.418Z,1022.00
2023-04-26T15:19:45.469Z,1021.00
2023-04-26T15:20:46.543Z,1019.00
2023-04-26T15:21:46.588Z,1021.00
2023-04-26T15:22:45.631Z,1020.00
2023-04-26T15:23:45.676Z,1020.00
2023-04-26T15:24:45.725Z,1020.00
2023-04-26T15:25:45.769Z,1021.00
2023-04-26T15:26:46.833Z,1021.00
2023-04-26T15:27:46.883Z,1020.00
2023-04-26T15:28:46.904Z,1016.00
2023-04-26T15:29:46.955Z,1015.00
2023-04-26T15:32:05.164Z,1021.00
2023-04-26T15:33:06.376Z,1030.00
2023-04-26T15:34:06.136Z,1027.00
2023-04-26T15:35:06.049Z,1028.00
2023-04-26T15:36:05.093Z,1027.00
2023-04-26T15:37:06.056Z,1023.00
2023-04-26T15:38:06.027Z,1019.00
2023-04-26T15:39:06.087Z,1015.00
2023-04-26T15:40:06.009Z,1013.00
2023-04-26T15:41:05.305Z,1011.00
2023-04-26T15:42:04.981Z,1011.00
2023-04-26T15:43:05.507Z,1007.00
2023-04-26T15:44:12.470Z,1012.00
2023-04-26T15:45:04.975Z,1012.00
2023-04-26T15:46:06.365Z,1011.00
2023-04-26T15:47:05.928Z,1013.00
2023-04-26T15:48:05.962Z,1010.00
2023-04-26T15:49:04.932Z,1008.00
2023-04-26T15:50:05.941Z,1008.00
2023-04-26T15:51:05.940Z,1008.00
2023-04-26T15:52:06.276Z,1007.00
2023-04-26T15:53:05.917Z,1005.00
2023-04-26T15:54:05.899Z,1001.00
2023-04-26T15:55:05.905Z,997.00
2023-04-26T15:56:04.885Z,995.00
2023-04-26T15:57:04.912Z,994.00
2023-04-26T16:03:56.661Z,982.00
2023-04-26T16:04:56.774Z,984.00
2023-04-26T16:05:57.849Z,983.00
2023-04-26T16:06:57.511Z,979.00
2023-04-26T16:07:56.645Z,979.00
2023-04-26T16:08:57.437Z,979.00
2023-04-26T16:09:57.395Z,978.00
2023-04-26T16:10:57.351Z,980.00
2023-04-26T16:11:57.595Z,978.00
2023-04-26T16:14:15.970Z,965.00
2023-04-26T16:15:16.557Z,968.00
2023-04-26T16:16:17.559Z,968.00
2023-04-26T16:17:15.627Z,960.00
2023-04-26T16:18:16.671Z,957.00
2023-04-26T16:19:15.783Z,950.00
2023-04-26T16:20:16.796Z,942.00
2023-04-26T16:21:16.798Z,935.00
2023-04-26T16:22:16.874Z,930.00
2023-04-26T16:23:17.050Z,931.00
2023-04-26T16:24:16.904Z,933.00
2023-04-26T16:25:15.970Z,929.00
2023-04-26T16:26:17.007Z,926.00
2023-04-26T16:27:17.029Z,924.00
2023-04-26T16:28:16.098Z,920.00
2023-04-26T16:29:17.122Z,921.00
2023-04-26T16:30:17.433Z,921.00
2023-04-26T16:31:16.361Z,921.00
2023-04-26T16:32:17.542Z,914.00
2023-04-26T16:33:17.787Z,909.00
2023-04-26T16:34:16.476Z,904.00
2023-04-26T16:35:16.345Z,904.00
2023-04-26T16:36:17.418Z,901.00
2023-04-26T16:37:17.373Z,899.00
2023-04-26T16:38:17.378Z,895.00
2023-04-26T16:39:17.463Z,891.00
2023-04-26T16:40:17.465Z,888.00
2023-04-26T16:41:17.497Z,886.00
2023-04-26T16:42:17.512Z,885.00
2023-04-26T16:43:17.734Z,882.00
2023-04-26T16:44:16.616Z,880.00
2023-04-26T16:45:17.603Z,879.00
2023-04-26T16:46:17.711Z,878.00
2023-04-26T16:47:17.713Z,879.00
2023-04-26T16:48:17.806Z,875.00
2023-04-26T16:49:17.774Z,872.00
2023-04-26T16:59:51.978Z,837.00
2023-04-26T17:00:49.908Z,836.00
2023-04-26T17:01:49.851Z,834.00
